Decoded Metar for KM25 ( in ) (IATA:) | Meteo·Mobile Aviation Weather
aviador You're here:

KM25 Decoded Metar

in
Report Time2018-11-12 18:35:00
UTC Time2018-11-12 18:35:08
Flight Rules mvfr MVFR
Wind360° at 04 kt
Visibility9999 m
Phenomena:Light Rain
Clouds:Overcast 011 Hf
Expected CloudBase > 800 ft AGL from Temp-Dew spread
Ceiling1,100 ft
Temp05°C
Dew Point03°C (87% RH)
AAT2.1°C
QNH1021 hPa
Raw Report
METAR KM25 121835Z AUTO 36004KT 7SM -RA OVC011 05/03 A3016 RMK AO2
P0003=

Extra information for KM25:More info

Social comments